Time;durP1;ratioP1;P1;durP2;ratioP2;P2;SDS_P1;SDS_P2;PMS_P1;PMS_P2;Temp;Humidity;BMP_temperature;BMP_pressure;BME280_temperature;BME280_humidity;BME280_pressure;Samples;Min_cycle;Max_cycle;Signal;HPM_P1;HPM_P2
2021/01/11 00:00:13;;;;;;;5.15;2.45;;;-1.30;99.90;;;;;;5091887;28;20028;-76
2021/01/11 00:02:39;;;;;;;4.75;2.33;;;-1.30;99.90;;;;;;5088251;28;20123;-76
2021/01/11 00:05:08;;;;;;;4.80;2.67;;;-1.40;99.90;;;;;;5084834;28;20095;-76
2021/01/11 00:07:35;;;;;;;4.57;2.50;;;-1.40;99.90;;;;;;5088930;28;20443;-78
2021/01/11 00:10:01;;;;;;;5.35;2.40;;;-1.40;99.90;;;;;;5060059;28;20424;-76
2021/01/11 00:12:27;;;;;;;4.70;2.60;;;-1.40;99.90;;;;;;5088346;28;20107;-76
2021/01/11 00:14:55;;;;;;;4.43;2.55;;;-1.40;99.90;;;;;;5071616;28;20063;-76
2021/01/11 00:17:26;;;;;;;4.50;2.40;;;-1.40;99.90;;;;;;5090878;28;20047;-75
2021/01/11 00:19:54;;;;;;;4.20;2.30;;;-1.40;99.90;;;;;;5089648;28;20119;-76
2021/01/11 00:22:22;;;;;;;4.85;2.58;;;-1.40;99.90;;;;;;5087945;28;20020;-75
2021/01/11 00:24:52;;;;;;;5.13;2.60;;;-1.40;99.90;;;;;;5088975;28;20103;-75
2021/01/11 00:27:18;;;;;;;4.60;2.50;;;-1.40;99.90;;;;;;5089640;28;20028;-75
2021/01/11 00:29:43;;;;;;;4.53;2.53;;;-1.40;99.90;;;;;;5089056;28;20046;-76
2021/01/11 00:32:09;;;;;;;4.68;2.47;;;-1.40;99.90;;;;;;5087146;28;20685;-76
2021/01/11 00:34:39;;;;;;;5.53;2.60;;;-1.40;99.90;;;;;;5092178;28;20449;-75
2021/01/11 00:37:05;;;;;;;4.13;2.30;;;-1.40;99.90;;;;;;5091143;28;20097;-76
2021/01/11 00:39:33;;;;;;;4.53;2.45;;;-1.40;99.90;;;;;;5088399;28;20077;-76
2021/01/11 00:42:01;;;;;;;4.20;2.38;;;-1.40;99.90;;;;;;5092556;28;20015;-75
2021/01/11 00:44:28;;;;;;;5.30;2.65;;;-1.40;99.90;;;;;;5086641;28;20582;-75
2021/01/11 00:47:03;;;;;;;4.88;2.50;;;-1.40;99.90;;;;;;5078187;28;20023;-76
2021/01/11 00:49:31;;;;;;;5.20;2.75;;;-1.40;99.90;;;;;;5082355;28;20530;-75
2021/01/11 00:51:59;;;;;;;5.85;3.10;;;-1.50;99.90;;;;;;5089653;28;20023;-75
2021/01/11 00:54:25;;;;;;;5.20;2.75;;;-1.60;99.90;;;;;;5090363;28;20607;-75
2021/01/11 00:56:53;;;;;;;5.68;3.10;;;-1.60;99.90;;;;;;5072175;28;20024;-76
2021/01/11 00:59:21;;;;;;;5.65;3.15;;;-1.70;99.90;;;;;;5077865;28;20484;-75
2021/01/11 01:01:52;;;;;;;5.10;2.92;;;-1.70;99.90;;;;;;5090940;28;20024;-75
2021/01/11 01:04:18;;;;;;;4.90;2.60;;;-1.70;99.90;;;;;;5075114;28;20054;-75
2021/01/11 01:06:44;;;;;;;6.38;2.90;;;-1.70;99.90;;;;;;5086365;28;20024;-75
2021/01/11 01:09:12;;;;;;;5.22;2.95;;;-1.70;99.90;;;;;;5089468;28;20035;-75
2021/01/11 01:11:41;;;;;;;5.78;2.85;;;-1.70;99.90;;;;;;5095044;28;20028;-75
2021/01/11 01:14:09;;;;;;;5.32;2.95;;;-1.70;99.90;;;;;;5089319;28;20598;-75
2021/01/11 01:16:37;;;;;;;6.38;3.30;;;-1.80;99.90;;;;;;5086274;28;20020;-75
2021/01/11 01:19:03;;;;;;;5.50;3.10;;;-1.80;99.90;;;;;;5087056;28;20047;-76
2021/01/11 01:21:33;;;;;;;5.93;3.05;;;-1.80;99.90;;;;;;5089820;28;20105;-75
2021/01/11 01:24:01;;;;;;;5.93;3.28;;;-1.80;99.90;;;;;;5089198;28;20028;-75
2021/01/11 01:26:31;;;;;;;5.35;2.90;;;-1.80;99.90;;;;;;5088384;28;20027;-75
2021/01/11 01:28:56;;;;;;;5.38;2.97;;;-1.70;99.90;;;;;;5085690;28;20471;-76
2021/01/11 01:31:24;;;;;;;5.00;2.85;;;-1.70;99.90;;;;;;5087727;28;20150;-75
2021/01/11 01:33:50;;;;;;;5.30;2.85;;;-1.80;99.90;;;;;;5086603;28;20028;-76
2021/01/11 01:36:18;;;;;;;4.50;2.65;;;-1.80;99.90;;;;;;5087330;28;20031;-75
2021/01/11 01:38:44;;;;;;;6.63;3.17;;;-1.70;99.90;;;;;;5084302;28;20028;-75
2021/01/11 01:41:14;;;;;;;4.97;2.60;;;-1.70;99.90;;;;;;5088528;28;20030;-76
2021/01/11 01:43:46;;;;;;;5.20;2.83;;;-1.70;99.90;;;;;;5086351;28;20393;-76
2021/01/11 01:46:14;;;;;;;5.10;2.63;;;-1.70;99.90;;;;;;5069748;28;20035;-76
2021/01/11 01:48:42;;;;;;;5.13;2.90;;;-1.70;99.90;;;;;;5085753;28;20093;-75
2021/01/11 01:51:07;;;;;;;5.60;2.83;;;-1.70;99.90;;;;;;5060236;28;20032;-75
2021/01/11 01:53:34;;;;;;;7.40;3.25;;;-1.70;99.90;;;;;;5086758;28;20162;-76
2021/01/11 01:56:02;;;;;;;4.90;2.85;;;-1.70;99.90;;;;;;5074824;28;20126;-76
2021/01/11 01:58:32;;;;;;;5.80;3.00;;;-1.70;99.90;;;;;;5086562;28;20031;-75
2021/01/11 02:01:02;;;;;;;4.97;3.00;;;-1.70;99.90;;;;;;5078334;28;20027;-76
2021/01/11 02:03:30;;;;;;;5.75;3.20;;;-1.70;99.90;;;;;;5087084;28;20523;-76
2021/01/11 02:05:56;;;;;;;5.03;2.90;;;-1.70;99.90;;;;;;5088420;28;20025;-76
2021/01/11 02:08:27;;;;;;;5.72;2.90;;;-1.70;99.90;;;;;;5090454;28;20047;-76
2021/01/11 02:11:04;;;;;;;6.30;2.88;;;-1.70;99.90;;;;;;5059845;28;20153;-76
2021/01/11 02:13:40;;;;;;;4.97;2.78;;;-1.70;99.90;;;;;;5085717;28;20036;-76
2021/01/11 02:16:17;;;;;;;4.63;2.60;;;-1.70;99.90;;;;;;5090723;28;20077;-75
2021/01/11 02:19:14;;;;;;;5.28;2.80;;;-1.70;99.90;;;;;;5087776;28;20046;-75
2021/01/11 02:21:48;;;;;;;5.03;2.45;;;-1.70;99.90;;;;;;5089325;28;20399;-75
2021/01/11 02:25:01;;;;;;;5.07;2.85;;;-1.70;99.90;;;;;;5087374;28;20024;-75
2021/01/11 02:27:40;;;;;;;5.53;2.83;;;-1.70;99.90;;;;;;5001764;28;20041;-75
2021/01/11 02:30:25;;;;;;;5.43;2.80;;;-1.80;99.90;;;;;;5078766;28;20067;-75
2021/01/11 02:33:11;;;;;;;5.35;3.00;;;-1.80;99.90;;;;;;5085394;28;20487;-75
2021/01/11 02:35:49;;;;;;;5.13;3.13;;;-1.90;99.90;;;;;;5092146;28;20180;-75
2021/01/11 02:38:19;;;;;;;4.90;2.80;;;-1.90;99.90;;;;;;5096152;28;20047;-75
2021/01/11 02:40:47;;;;;;;5.10;2.80;;;-1.90;99.90;;;;;;5097263;28;20086;-76
2021/01/11 02:43:16;;;;;;;4.70;2.60;;;-1.90;99.90;;;;;;5091030;28;20020;-75
2021/01/11 02:45:43;;;;;;;4.97;2.70;;;-1.90;99.90;;;;;;5094521;28;20521;-75
2021/01/11 02:48:19;;;;;;;5.43;3.00;;;-1.90;99.90;;;;;;5091741;28;20093;-75
2021/01/11 02:51:09;;;;;;;4.45;2.67;;;-1.90;99.90;;;;;;5096163;28;20040;-75
2021/01/11 02:54:12;;;;;;;4.82;2.55;;;-1.90;99.90;;;;;;5091035;28;20028;-75
2021/01/11 02:56:56;;;;;;;5.22;2.90;;;-1.90;99.90;;;;;;5097559;28;20020;-76
2021/01/11 02:59:29;;;;;;;4.80;2.60;;;-1.90;99.90;;;;;;5096386;28;20098;-75
2021/01/11 03:02:04;;;;;;;6.90;3.20;;;-1.90;99.90;;;;;;5093568;28;20043;-76
2021/01/11 03:04:32;;;;;;;6.10;3.00;;;-1.90;99.90;;;;;;5097552;28;20367;-75
2021/01/11 03:07:04;;;;;;;5.82;3.00;;;-1.90;99.90;;;;;;5093975;28;20027;-75
2021/01/11 03:09:30;;;;;;;5.40;2.80;;;-2.00;99.90;;;;;;5090201;28;20039;-75
2021/01/11 03:12:00;;;;;;;5.03;2.88;;;-2.00;99.90;;;;;;5093478;28;20058;-75
2021/01/11 03:14:25;;;;;;;5.25;2.72;;;-2.00;99.90;;;;;;5091443;28;20081;-75
2021/01/11 03:16:57;;;;;;;5.53;2.67;;;-2.00;99.90;;;;;;5095887;28;20032;-74
2021/01/11 03:19:27;;;;;;;5.05;2.70;;;-2.00;99.90;;;;;;5094493;28;20131;-75
2021/01/11 03:21:55;;;;;;;5.05;2.90;;;-2.00;99.90;;;;;;5063066;28;20039;-75
2021/01/11 03:24:23;;;;;;;5.25;2.72;;;-2.10;99.90;;;;;;5083862;28;20027;-75
2021/01/11 03:26:51;;;;;;;5.32;2.83;;;-2.10;99.90;;;;;;5090047;28;20098;-75
2021/01/11 03:29:19;;;;;;;6.13;3.03;;;-2.10;99.90;;;;;;5074403;28;20020;-75
2021/01/11 03:31:46;;;;;;;6.32;3.58;;;-2.10;99.90;;;;;;5093461;28;20019;-75
2021/01/11 03:34:13;;;;;;;6.53;3.63;;;-2.10;99.90;;;;;;5077364;28;20016;-75
2021/01/11 03:36:39;;;;;;;6.97;3.45;;;-2.20;99.90;;;;;;5098928;28;20024;-75
2021/01/11 03:39:06;;;;;;;6.55;3.28;;;-2.20;99.90;;;;;;5092487;28;20024;-75
2021/01/11 03:41:37;;;;;;;5.10;2.80;;;-2.20;99.90;;;;;;5090343;28;20019;-75
2021/01/11 03:44:03;;;;;;;5.18;2.92;;;-2.20;99.90;;;;;;5074451;28;20039;-75
2021/01/11 03:46:32;;;;;;;5.55;2.90;;;-2.20;99.90;;;;;;5080028;28;20023;-75
2021/01/11 03:48:58;;;;;;;5.03;2.78;;;-2.20;99.90;;;;;;5082629;28;20407;-75
2021/01/11 03:51:23;;;;;;;6.78;3.47;;;-2.20;99.90;;;;;;5060866;28;20035;-75
2021/01/11 03:53:52;;;;;;;5.72;2.80;;;-2.20;99.90;;;;;;5075272;28;20081;-75
2021/01/11 03:56:22;;;;;;;5.53;3.05;;;-2.20;99.90;;;;;;5086494;28;20051;-75
2021/01/11 03:58:48;;;;;;;5.35;3.10;;;-2.20;99.90;;;;;;5094084;28;20079;-75
2021/01/11 04:01:16;;;;;;;5.40;2.85;;;-2.20;99.90;;;;;;5090988;28;20108;-75
2021/01/11 04:03:42;;;;;;;5.82;3.10;;;-2.20;99.90;;;;;;5073248;28;20024;-75
2021/01/11 04:06:08;;;;;;;5.60;2.85;;;-2.30;99.90;;;;;;5094339;28;20028;-75
2021/01/11 04:08:33;;;;;;;6.00;2.95;;;-2.30;99.90;;;;;;5074874;28;20030;-75
2021/01/11 04:10:59;;;;;;;5.78;3.08;;;-2.20;99.90;;;;;;5093752;28;20020;-75
2021/01/11 04:13:25;;;;;;;5.10;2.92;;;-2.20;99.90;;;;;;5091802;28;20059;-76
2021/01/11 04:15:50;;;;;;;6.10;3.60;;;-2.20;99.90;;;;;;5091786;28;20357;-76
2021/01/11 04:18:16;;;;;;;5.88;3.03;;;-2.20;99.90;;;;;;5090321;28;20551;-75
2021/01/11 04:20:42;;;;;;;5.43;2.92;;;-2.30;99.90;;;;;;5077521;28;20104;-75
2021/01/11 04:23:10;;;;;;;5.10;2.83;;;-2.30;99.90;;;;;;5093171;28;20705;-75
2021/01/11 04:25:40;;;;;;;5.43;2.90;;;-2.20;99.90;;;;;;5094451;28;20155;-75
2021/01/11 04:28:06;;;;;;;6.18;2.97;;;-2.20;99.90;;;;;;5091525;28;20032;-75
2021/01/11 04:30:31;;;;;;;5.82;2.92;;;-2.30;99.90;;;;;;5094004;28;20388;-75
2021/01/11 04:33:02;;;;;;;5.32;2.90;;;-2.20;99.90;;;;;;5090922;28;20031;-75
2021/01/11 04:35:32;;;;;;;5.70;2.85;;;-2.30;99.90;;;;;;5095356;28;20539;-75
2021/01/11 04:38:02;;;;;;;4.78;2.50;;;-2.20;99.90;;;;;;5092319;28;20118;-75
2021/01/11 04:40:28;;;;;;;5.03;2.70;;;-2.30;99.90;;;;;;5071618;28;20033;-75
2021/01/11 04:43:05;;;;;;;5.25;2.92;;;-2.40;99.90;;;;;;5089086;28;20388;-75
2021/01/11 04:45:33;;;;;;;5.53;2.95;;;-2.40;99.90;;;;;;5090994;28;20035;-75
2021/01/11 04:48:00;;;;;;;5.65;3.03;;;-2.40;99.90;;;;;;5080285;28;20024;-75
2021/01/11 04:50:26;;;;;;;6.05;3.10;;;-2.40;99.90;;;;;;5089068;28;20024;-75
2021/01/11 04:52:54;;;;;;;6.30;3.25;;;-2.50;99.90;;;;;;5062824;28;20107;-75
2021/01/11 04:55:25;;;;;;;6.47;2.97;;;-2.50;99.90;;;;;;5077777;28;20035;-75
2021/01/11 04:57:55;;;;;;;5.60;2.85;;;-2.50;99.90;;;;;;5094494;28;20028;-75
2021/01/11 05:00:24;;;;;;;5.80;3.08;;;-2.50;99.90;;;;;;5080539;28;20473;-75
2021/01/11 05:02:58;;;;;;;5.50;3.00;;;-2.50;99.90;;;;;;5078086;28;20028;-75
2021/01/11 05:05:27;;;;;;;7.10;4.00;;;-2.60;99.90;;;;;;5091476;28;20028;-75
2021/01/11 05:07:55;;;;;;;7.90;4.72;;;-2.60;99.90;;;;;;5089456;28;20065;-75
2021/01/11 05:10:25;;;;;;;9.38;4.90;;;-2.60;99.90;;;;;;5092811;28;20107;-75
2021/01/11 05:13:01;;;;;;;7.47;4.20;;;-2.60;99.90;;;;;;5076965;28;20035;-75
2021/01/11 05:15:30;;;;;;;8.38;4.35;;;-2.60;99.90;;;;;;5089524;28;20024;-76
2021/01/11 05:17:58;;;;;;;7.85;4.20;;;-2.70;99.90;;;;;;5095824;28;20040;-75
2021/01/11 05:20:27;;;;;;;7.07;4.13;;;-2.70;99.90;;;;;;5087214;28;20576;-75
2021/01/11 05:22:54;;;;;;;8.00;4.60;;;-2.70;99.90;;;;;;5071368;28;20040;-75
2021/01/11 05:25:24;;;;;;;9.18;5.00;;;-2.70;99.90;;;;;;5071924;28;20024;-75
2021/01/11 05:28:18;;;;;;;10.90;6.00;;;-2.70;99.90;;;;;;5081047;28;20020;-75
2021/01/11 05:30:50;;;;;;;11.55;6.25;;;-2.70;99.90;;;;;;5092196;28;20020;-75
2021/01/11 05:33:19;;;;;;;9.20;4.97;;;-2.70;99.90;;;;;;5091569;28;20028;-75
2021/01/11 05:36:01;;;;;;;12.75;7.38;;;-2.70;99.90;;;;;;5088113;28;20028;-76
2021/01/11 05:38:35;;;;;;;12.85;7.47;;;-2.70;99.90;;;;;;5089248;28;20128;-76
2021/01/11 05:41:11;;;;;;;13.20;8.60;;;-2.70;99.90;;;;;;5089674;28;20029;-76
2021/01/11 05:43:37;;;;;;;12.90;8.70;;;-2.70;99.90;;;;;;5086333;28;20035;-76
2021/01/11 05:46:04;;;;;;;16.30;9.75;;;-2.70;99.90;;;;;;5088444;28;20035;-75
2021/01/11 05:48:29;;;;;;;17.95;11.00;;;-2.70;99.90;;;;;;5068825;28;20021;-75
2021/01/11 05:50:58;;;;;;;15.60;9.57;;;-2.70;99.90;;;;;;5087796;28;20441;-75
2021/01/11 05:53:26;;;;;;;14.10;8.80;;;-2.80;99.90;;;;;;5073882;28;20197;-76
2021/01/11 05:55:57;;;;;;;15.38;9.52;;;-2.80;99.90;;;;;;5093198;28;20142;-75
2021/01/11 05:58:26;;;;;;;15.23;8.88;;;-2.80;99.90;;;;;;5087357;28;20131;-76
2021/01/11 06:00:57;;;;;;;15.88;9.15;;;-2.80;99.90;;;;;;5090520;28;20024;-75
2021/01/11 06:03:27;;;;;;;13.25;8.23;;;-2.80;99.90;;;;;;5090861;28;20020;-75
2021/01/11 06:05:58;;;;;;;16.20;9.82;;;-2.90;99.90;;;;;;5090836;28;20055;-76
2021/01/11 06:08:26;;;;;;;15.15;9.25;;;-2.90;99.90;;;;;;5079665;28;20043;-75
2021/01/11 06:10:56;;;;;;;13.65;8.43;;;-2.90;99.90;;;;;;5047390;28;20028;-75
2021/01/11 06:13:27;;;;;;;12.70;7.28;;;-2.90;99.90;;;;;;5074411;28;20116;-76
2021/01/11 06:15:52;;;;;;;11.85;6.95;;;-2.90;99.90;;;;;;5089155;28;20060;-75
2021/01/11 06:18:21;;;;;;;13.07;7.53;;;-3.00;99.90;;;;;;5092434;28;20060;-75
2021/01/11 06:20:49;;;;;;;11.82;6.82;;;-2.90;99.90;;;;;;5083486;28;20035;-75
2021/01/11 06:23:35;;;;;;;13.52;7.63;;;-3.00;99.90;;;;;;5095349;28;20035;-76
2021/01/11 06:26:00;;;;;;;16.60;8.93;;;-3.00;99.90;;;;;;5093269;28;20062;-76
2021/01/11 06:28:35;;;;;;;15.10;9.35;;;-3.00;99.90;;;;;;5090802;28;20373;-76
2021/01/11 06:31:11;;;;;;;14.88;9.45;;;-3.00;99.90;;;;;;5095164;28;20027;-76
2021/01/11 06:33:38;;;;;;;14.52;9.55;;;-3.00;99.90;;;;;;5096891;28;20032;-76
2021/01/11 06:36:05;;;;;;;22.17;12.02;;;-3.00;99.90;;;;;;5097060;28;20025;-76
2021/01/11 06:38:33;;;;;;;22.63;12.57;;;-3.00;99.90;;;;;;5063556;28;20031;-76
2021/01/11 06:41:02;;;;;;;19.08;11.15;;;-3.10;99.90;;;;;;5077221;28;20128;-76
2021/01/11 06:43:40;;;;;;;17.23;10.65;;;-3.10;99.90;;;;;;5091269;28;20031;-76
2021/01/11 06:46:06;;;;;;;15.93;10.00;;;-3.10;99.90;;;;;;5079056;28;20032;-76
2021/01/11 06:48:37;;;;;;;19.17;11.05;;;-3.10;99.90;;;;;;5093032;28;20028;-75
2021/01/11 06:51:06;;;;;;;18.20;11.15;;;-3.10;99.90;;;;;;5093067;28;20033;-75
2021/01/11 06:53:35;;;;;;;18.30;10.52;;;-3.10;99.90;;;;;;5091859;28;20139;-76
2021/01/11 06:56:10;;;;;;;17.42;10.57;;;-3.10;99.90;;;;;;5092524;28;20096;-75
2021/01/11 06:58:38;;;;;;;17.17;10.20;;;-3.10;99.90;;;;;;5090921;28;20028;-75
2021/01/11 07:01:11;;;;;;;18.00;10.32;;;-3.10;99.90;;;;;;5089567;28;20039;-75
2021/01/11 07:03:47;;;;;;;17.90;10.05;;;-3.10;99.90;;;;;;5090473;28;20082;-76
2021/01/11 07:06:38;;;;;;;14.18;8.98;;;-3.10;99.90;;;;;;5097657;28;20043;-76
2021/01/11 07:09:17;;;;;;;15.10;9.35;;;-3.10;99.90;;;;;;5096556;28;20042;-76
2021/01/11 07:11:44;;;;;;;19.15;10.60;;;-3.10;99.90;;;;;;5087567;28;20076;-73
2021/01/11 07:14:12;;;;;;;14.23;8.52;;;-3.10;99.90;;;;;;5087795;28;20028;-73
2021/01/11 07:16:55;;;;;;;13.52;8.80;;;-3.10;99.90;;;;;;5090983;28;20020;-76
2021/01/11 07:19:41;;;;;;;13.73;8.55;;;-3.10;99.90;;;;;;5085160;28;20058;-76
2021/01/11 07:22:09;;;;;;;16.05;9.02;;;-3.10;99.90;;;;;;5089486;28;20479;-76
2021/01/11 07:24:41;;;;;;;12.13;6.75;;;-3.10;99.90;;;;;;5090689;28;20654;-76
2021/01/11 07:27:10;;;;;;;8.25;5.18;;;-3.10;99.90;;;;;;5089021;28;20103;-76
2021/01/11 07:29:40;;;;;;;11.48;6.72;;;-3.10;99.90;;;;;;5087527;28;20052;-76
2021/01/11 07:32:06;;;;;;;11.75;7.10;;;-3.10;99.90;;;;;;5087381;28;20032;-76
2021/01/11 07:34:33;;;;;;;16.75;9.57;;;-3.10;99.90;;;;;;5087146;28;20031;-76
2021/01/11 07:36:58;;;;;;;18.25;9.95;;;-3.20;99.90;;;;;;5084078;28;20354;-76
2021/01/11 07:39:33;;;;;;;21.52;11.40;;;-3.10;99.90;;;;;;5091210;28;20030;-77
2021/01/11 07:41:59;;;;;;;19.23;10.80;;;-3.20;99.90;;;;;;5088292;28;20019;-77
2021/01/11 07:44:34;;;;;;;17.30;10.60;;;-3.20;99.90;;;;;;5070129;28;20524;-76
2021/01/11 07:47:06;;;;;;;14.98;8.88;;;-3.20;99.90;;;;;;5089374;28;20023;-76
2021/01/11 07:49:36;;;;;;;16.13;9.00;;;-3.20;99.90;;;;;;5084301;28;20074;-76
2021/01/11 07:52:06;;;;;;;12.25;7.60;;;-3.20;99.90;;;;;;5079386;28;20476;-76
2021/01/11 07:54:33;;;;;;;15.05;8.57;;;-3.20;99.90;;;;;;5086650;28;20050;-77
2021/01/11 07:57:02;;;;;;;12.07;7.60;;;-3.10;99.90;;;;;;5070558;28;20102;-76
2021/01/11 07:59:30;;;;;;;12.32;7.72;;;-3.10;99.90;;;;;;5089534;28;20031;-76
2021/01/11 08:02:03;;;;;;;14.20;8.82;;;-3.10;99.90;;;;;;5085614;28;20028;-76
2021/01/11 08:04:35;;;;;;;15.35;8.65;;;-3.10;99.90;;;;;;5085827;28;20741;-77
2021/01/11 08:07:01;;;;;;;15.20;8.90;;;-3.10;99.90;;;;;;5086688;28;20107;-77
2021/01/11 08:09:31;;;;;;;15.52;9.10;;;-3.00;99.90;;;;;;5087418;28;20485;-77
2021/01/11 08:12:27;;;;;;;16.23;9.77;;;-3.00;99.90;;;;;;5076846;28;20031;-76
2021/01/11 08:15:00;;;;;;;15.88;9.13;;;-3.00;99.90;;;;;;5089344;28;20044;-76
2021/01/11 08:17:26;;;;;;;18.42;10.40;;;-3.00;99.90;;;;;;5075427;28;20583;-76
2021/01/11 08:19:52;;;;;;;17.00;8.98;;;-3.00;99.90;;;;;;5081488;28;20127;-76
2021/01/11 08:22:20;;;;;;;16.23;9.40;;;-3.00;99.90;;;;;;5085152;28;20044;-77
2021/01/11 08:24:55;;;;;;;15.50;9.13;;;-2.90;99.90;;;;;;5091142;28;20432;-77
2021/01/11 08:27:31;;;;;;;17.77;9.88;;;-2.90;99.90;;;;;;5090805;28;20461;-77
2021/01/11 08:29:59;;;;;;;18.88;10.80;;;-2.90;99.90;;;;;;5088590;28;20475;-77
2021/01/11 08:32:25;;;;;;;21.60;11.70;;;-2.80;99.90;;;;;;5069725;28;20019;-77
2021/01/11 08:34:54;;;;;;;22.63;12.32;;;-2.80;99.90;;;;;;5070713;28;20100;-77
2021/01/11 08:37:29;;;;;;;20.00;11.18;;;-2.70;99.90;;;;;;5085462;28;20097;-76
2021/01/11 08:40:05;;;;;;;21.75;11.68;;;-2.70;99.90;;;;;;5086331;28;20101;-77
2021/01/11 08:42:33;;;;;;;19.90;11.50;;;-2.60;99.90;;;;;;5088959;28;20024;-79
2021/01/11 08:45:24;;;;;;;21.25;11.65;;;-2.60;99.90;;;;;;5084060;28;20120;-77
2021/01/11 08:48:06;;;;;;;17.08;10.50;;;-2.50;99.90;;;;;;5091885;28;20600;-77
2021/01/11 08:50:35;;;;;;;19.08;11.20;;;-2.50;99.90;;;;;;5086890;28;20028;-76
2021/01/11 08:53:23;;;;;;;18.73;11.38;;;-2.40;99.90;;;;;;5061581;28;20103;-77
2021/01/11 08:56:04;;;;;;;19.13;11.18;;;-2.40;99.90;;;;;;5089896;28;20020;-77
2021/01/11 08:58:48;;;;;;;18.67;11.38;;;-2.40;99.90;;;;;;5084661;28;20036;-77
2021/01/11 09:01:21;;;;;;;17.98;10.70;;;-2.30;99.90;;;;;;5085853;28;21830;-77
2021/01/11 09:03:53;;;;;;;21.02;12.27;;;-2.30;99.90;;;;;;5076796;28;20025;-76
2021/01/11 09:06:43;;;;;;;19.07;11.60;;;-2.20;99.90;;;;;;5089494;28;20040;-76
2021/01/11 09:09:16;;;;;;;19.52;11.38;;;-2.10;99.90;;;;;;5077300;28;20113;-76
2021/01/11 09:11:46;;;;;;;18.98;11.18;;;-2.10;99.90;;;;;;5082008;28;20476;-76
2021/01/11 09:14:15;;;;;;;20.35;12.20;;;-2.10;99.90;;;;;;5087882;28;20026;-76
2021/01/11 09:16:47;;;;;;;22.13;13.38;;;-2.00;99.90;;;;;;5084344;28;20039;-76
2021/01/11 09:19:17;;;;;;;22.08;13.30;;;-1.90;99.90;;;;;;5084217;28;20066;-76
2021/01/11 09:21:58;;;;;;;21.02;12.25;;;-1.90;99.90;;;;;;5069011;28;20500;-76
2021/01/11 09:24:27;;;;;;;22.80;12.48;;;-1.80;99.90;;;;;;5086964;28;20028;-75
2021/01/11 09:26:55;;;;;;;20.98;12.25;;;-1.80;99.90;;;;;;5086712;28;20032;-75
2021/01/11 09:29:20;;;;;;;22.05;12.32;;;-1.70;99.90;;;;;;5084693;28;20116;-76
2021/01/11 09:31:46;;;;;;;21.85;12.75;;;-1.60;99.90;;;;;;5077274;28;20073;-75
2021/01/11 09:34:14;;;;;;;22.77;12.65;;;-1.60;99.90;;;;;;5089932;28;20028;-76
2021/01/11 09:36:45;;;;;;;23.60;12.85;;;-1.60;99.90;;;;;;5093503;28;20035;-75
2021/01/11 09:39:13;;;;;;;24.02;12.52;;;-1.50;99.90;;;;;;5091034;28;20441;-76
2021/01/11 09:41:49;;;;;;;21.55;12.30;;;-1.50;99.90;;;;;;5091137;28;20028;-78
2021/01/11 09:44:16;;;;;;;22.10;12.35;;;-1.40;99.90;;;;;;5081352;28;20457;-75
2021/01/11 09:46:49;;;;;;;21.33;12.38;;;-1.40;99.90;;;;;;5091491;28;20042;-75
2021/01/11 09:49:16;;;;;;;22.77;12.95;;;-1.30;99.90;;;;;;5092423;28;20100;-77
2021/01/11 09:51:43;;;;;;;19.63;11.57;;;-1.30;99.90;;;;;;5087630;28;20032;-77
2021/01/11 09:54:11;;;;;;;22.48;13.40;;;-1.20;99.90;;;;;;5087608;28;20039;-76
2021/01/11 09:56:42;;;;;;;19.33;12.43;;;-1.20;99.90;;;;;;5089677;28;20442;-76
2021/01/11 09:59:08;;;;;;;24.70;14.15;;;-1.20;99.90;;;;;;5091775;28;20113;-76
2021/01/11 10:01:41;;;;;;;19.77;11.73;;;-1.10;99.90;;;;;;5092460;28;20023;-76
2021/01/11 10:04:08;;;;;;;20.73;11.80;;;-1.10;99.90;;;;;;5090549;28;20081;-76
2021/01/11 10:06:46;;;;;;;18.55;11.43;;;-1.00;99.90;;;;;;5092486;28;20030;-77
2021/01/11 10:09:12;;;;;;;17.00;10.25;;;-1.00;99.90;;;;;;5095497;28;20035;-77
2021/01/11 10:11:43;;;;;;;18.70;11.45;;;-0.90;99.90;;;;;;5090372;28;20111;-76
2021/01/11 10:14:09;;;;;;;19.15;11.80;;;-0.80;99.90;;;;;;5077488;28;20042;-77
2021/01/11 10:16:39;;;;;;;19.50;12.07;;;-0.80;99.90;;;;;;5091437;28;20028;-76
2021/01/11 10:19:09;;;;;;;18.95;11.43;;;-0.70;99.90;;;;;;5081914;28;20374;-77
2021/01/11 10:21:41;;;;;;;17.40;10.77;;;-0.70;99.90;;;;;;5092134;28;20016;-77
2021/01/11 10:24:07;;;;;;;20.00;12.25;;;-0.60;99.90;;;;;;5091098;28;20699;-77
2021/01/11 10:26:36;;;;;;;19.83;11.50;;;-0.60;99.90;;;;;;5073249;28;20032;-77
2021/01/11 10:29:07;;;;;;;19.50;11.60;;;-0.50;99.90;;;;;;5088761;28;20043;-77
2021/01/11 10:31:35;;;;;;;19.95;12.40;;;-0.40;99.90;;;;;;5091697;28;20524;-77
2021/01/11 10:34:02;;;;;;;17.25;11.07;;;-0.30;99.90;;;;;;5088766;28;20028;-77
2021/01/11 10:36:35;;;;;;;17.70;11.80;;;-0.30;99.90;;;;;;5093889;28;20033;-77
2021/01/11 10:39:00;;;;;;;19.55;12.55;;;-0.30;99.90;;;;;;5090175;28;20058;-77
2021/01/11 10:41:28;;;;;;;19.20;11.95;;;-0.20;99.90;;;;;;5087564;28;20512;-77
2021/01/11 10:43:56;;;;;;;18.38;11.95;;;-0.20;99.90;;;;;;5089821;28;20103;-78
2021/01/11 10:46:22;;;;;;;19.58;12.65;;;-0.20;99.90;;;;;;5088977;28;20096;-77
2021/01/11 10:48:47;;;;;;;18.55;11.40;;;-0.10;99.90;;;;;;5091268;28;20028;-78
2021/01/11 10:51:16;;;;;;;21.15;13.10;;;-0.10;99.90;;;;;;5089548;28;20024;-78
2021/01/11 10:53:42;;;;;;;20.10;12.98;;;-0.10;99.90;;;;;;5089656;28;20082;-78
2021/01/11 10:56:10;;;;;;;19.77;12.30;;;0.00;99.90;;;;;;5073656;28;20069;-78
2021/01/11 10:58:36;;;;;;;21.88;12.10;;;0.00;99.90;;;;;;5063137;28;20024;-78
2021/01/11 11:01:04;;;;;;;19.70;12.63;;;0.00;99.90;;;;;;5084376;28;20043;-78
2021/01/11 11:03:32;;;;;;;20.58;11.80;;;0.00;99.90;;;;;;5070725;28;20046;-78
2021/01/11 11:05:57;;;;;;;20.42;12.38;;;0.10;99.90;;;;;;5090921;28;20020;-79
2021/01/11 11:08:23;;;;;;;18.67;12.25;;;0.20;99.90;;;;;;5068654;28;20034;-78
2021/01/11 11:10:49;;;;;;;18.80;11.70;;;0.20;99.90;;;;;;5088750;28;20471;-78
2021/01/11 11:13:14;;;;;;;21.15;12.57;;;0.20;99.90;;;;;;5076256;28;20110;-79
2021/01/11 11:15:45;;;;;;;19.13;11.80;;;0.20;99.90;;;;;;5059637;28;20101;-78
2021/01/11 11:18:13;;;;;;;19.35;12.68;;;0.30;99.90;;;;;;5087339;28;20120;-79
2021/01/11 11:20:42;;;;;;;18.58;12.50;;;0.30;99.90;;;;;;5070362;28;20027;-79
2021/01/11 11:23:10;;;;;;;19.83;12.85;;;0.30;99.90;;;;;;5052878;28;20025;-79
2021/01/11 11:25:36;;;;;;;20.00;12.63;;;0.40;99.90;;;;;;5085668;28;20028;-79
2021/01/11 11:28:04;;;;;;;18.13;11.60;;;0.40;99.90;;;;;;5072376;28;20054;-79
2021/01/11 11:30:30;;;;;;;19.05;12.70;;;0.40;99.90;;;;;;5079587;28;20663;-79
2021/01/11 11:32:59;;;;;;;23.08;14.65;;;0.40;99.90;;;;;;5088228;28;20020;-79
2021/01/11 11:35:27;;;;;;;19.85;13.02;;;0.40;99.90;;;;;;5087099;28;20386;-79
2021/01/11 11:37:52;;;;;;;21.65;13.65;;;0.50;99.90;;;;;;5087147;28;20028;-78
2021/01/11 11:40:20;;;;;;;20.35;12.93;;;0.50;99.90;;;;;;5088755;28;20136;-79
2021/01/11 11:42:46;;;;;;;19.50;12.93;;;0.50;99.90;;;;;;5089980;28;20034;-78
2021/01/11 11:45:18;;;;;;;20.40;12.57;;;0.50;99.90;;;;;;5070196;28;20307;-78
2021/01/11 11:47:46;;;;;;;15.88;10.18;;;0.50;99.90;;;;;;5091847;28;20032;-78
2021/01/11 11:50:13;;;;;;;18.70;12.15;;;0.50;99.90;;;;;;5070149;28;20539;-78
2021/01/11 11:52:39;;;;;;;21.85;13.05;;;0.60;99.90;;;;;;5088768;28;20028;-79
2021/01/11 11:55:06;;;;;;;19.33;12.93;;;0.60;99.90;;;;;;5085901;28;20035;-78
2021/01/11 11:57:34;;;;;;;19.08;12.57;;;0.60;99.90;;;;;;5084327;28;20808;-78
2021/01/11 12:00:00;;;;;;;19.88;12.68;;;0.70;99.90;;;;;;5088983;28;20032;-78
2021/01/11 12:02:28;;;;;;;19.70;13.13;;;0.70;99.90;;;;;;5089648;28;20097;-78
2021/01/11 12:04:59;;;;;;;20.50;13.48;;;0.70;99.90;;;;;;5085562;28;20028;-78
2021/01/11 12:07:25;;;;;;;20.27;13.15;;;0.70;99.90;;;;;;5082165;28;20511;-78
2021/01/11 12:09:54;;;;;;;18.85;12.07;;;0.70;99.90;;;;;;5087785;28;20036;-78
2021/01/11 12:12:20;;;;;;;18.95;13.02;;;0.80;99.90;;;;;;5085327;28;20440;-78
2021/01/11 12:14:48;;;;;;;22.10;13.30;;;0.80;99.90;;;;;;5088773;28;20044;-74
2021/01/11 12:17:16;;;;;;;21.33;13.65;;;0.80;99.90;;;;;;5084541;28;20024;-74
2021/01/11 12:19:42;;;;;;;19.15;13.10;;;0.80;99.90;;;;;;5088359;28;20068;-73
2021/01/11 12:22:11;;;;;;;20.27;13.68;;;0.90;99.90;;;;;;4384787;28;10000844;-74
2021/01/11 12:24:40;;;;;;;20.38;13.07;;;0.90;99.90;;;;;;5088686;28;20024;-74
2021/01/11 12:27:06;;;;;;;22.10;13.60;;;0.80;99.90;;;;;;5085813;28;20023;-74
2021/01/11 12:29:31;;;;;;;20.65;13.10;;;0.90;99.90;;;;;;5068283;28;20035;-73
2021/01/11 12:31:57;;;;;;;20.35;13.43;;;0.90;99.90;;;;;;5071287;28;20029;-74
2021/01/11 12:34:23;;;;;;;20.25;13.32;;;1.00;99.90;;;;;;5071055;28;20628;-72
2021/01/11 12:36:49;;;;;;;21.83;13.95;;;1.00;99.90;;;;;;5087748;28;20027;-72
2021/01/11 12:39:17;;;;;;;18.83;11.93;;;1.00;99.90;;;;;;5071815;28;21475;-72
2021/01/11 12:41:43;;;;;;;22.05;14.13;;;1.10;99.90;;;;;;5073930;28;20023;-72
2021/01/11 12:44:09;;;;;;;22.98;13.77;;;1.10;99.90;;;;;;5060645;28;20368;-73
2021/01/11 12:46:35;;;;;;;21.25;13.93;;;1.00;99.90;;;;;;5085156;28;20125;-73
2021/01/11 12:49:01;;;;;;;20.08;13.38;;;1.00;99.90;;;;;;5074803;28;20104;-72
2021/01/11 12:51:27;;;;;;;19.40;13.32;;;1.00;99.90;;;;;;5084369;28;20488;-72